Time;durP1;ratioP1;P1;durP2;ratioP2;P2;SDS_P1;SDS_P2;PMS_P1;PMS_P2;Temp;Humidity;BMP_temperature;BMP_pressure;BME280_temperature;BME280_humidity;BME280_pressure;Samples;Min_cycle;Max_cycle;Signal;HPM_P1;HPM_P2
2021/03/30 00:00:05;;;;;;;;;;;;;;;2.18;100.00;100805.47;1846209;77;22127;-72
2021/03/30 00:02:34;;;;;;;;;;;;;;;2.07;100.00;100807.95;1846098;77;20107;-72
2021/03/30 00:05:03;;;;;;;;;;;;;;;2.07;100.00;100811.09;1787804;77;20482;-72
2021/03/30 00:07:31;;;;;;;;;;;;;;;2.07;100.00;100807.95;1845911;77;20210;-72
2021/03/30 00:09:59;;;;;;;;;;;;;;;2.11;100.00;100807.13;1846164;77;20135;-71
2021/03/30 00:12:27;;;;;;;;;;;;;;;2.12;100.00;100805.62;1846047;77;21425;-71
2021/03/30 00:14:56;;;;;;;;;;;;;;;2.16;100.00;100804.80;1851582;77;20150;-72
2021/03/30 00:17:25;;;;;;;;;;;;;;;2.19;100.00;100803.13;1855064;77;20236;-72
2021/03/30 00:19:54;;;;;;;;;;;;;;;2.21;100.00;100801.66;1855031;77;20147;-71
2021/03/30 00:22:23;;;;;;;;;;;;;;;2.24;100.00;100798.16;1854915;77;20273;-72
2021/03/30 00:24:52;;;;;;;;;;;;;;;2.25;100.00;100801.62;1843125;77;21353;-72
2021/03/30 00:27:20;;;;;;;;;;;;;;;2.21;100.00;100805.63;1821579;77;20105;-72
2021/03/30 00:29:50;;;;;;;;;;;;;;;2.12;100.00;100802.97;1821577;77;20222;-71
2021/03/30 00:32:21;;;;;;;;;;;;;;;2.07;100.00;100797.86;1821597;78;20137;-71
2021/03/30 00:34:48;;;;;;;;;;;;;;;2.09;100.00;100809.11;1821320;77;20157;-71
2021/03/30 00:37:16;;;;;;;;;;;;;;;2.14;100.00;100808.11;1821515;77;21192;-71
2021/03/30 00:39:44;;;;;;;;;;;;;;;2.12;100.00;100802.16;1821517;78;20145;-72
2021/03/30 00:42:18;;;;;;;;;;;;;;;2.15;100.00;100805.78;1821602;78;20109;-71
2021/03/30 00:44:45;;;;;;;;;;;;;;;2.07;100.00;100805.80;1821314;78;20148;-72
2021/03/30 00:47:16;;;;;;;;;;;;;;;1.99;100.00;100812.44;1821573;78;20152;-71
2021/03/30 00:49:44;;;;;;;;;;;;;;;1.91;100.00;100811.92;1821504;77;21358;-72
2021/03/30 00:52:13;;;;;;;;;;;;;;;1.82;100.00;100815.59;1821446;78;20109;-72
2021/03/30 00:55:15;;;;;;;;;;;;;;;1.76;100.00;100814.91;1821505;78;20523;-71
2021/03/30 00:57:44;;;;;;;;;;;;;;;1.71;100.00;100817.58;1684760;85;20190;-69
2021/03/30 01:00:14;;;;;;;;;;;;;;;1.60;100.00;100811.77;1702938;84;20274;-71
2021/03/30 01:02:42;;;;;;;;;;;;;;;1.49;100.00;100816.41;1672979;85;21177;-71
2021/03/30 01:05:11;;;;;;;;;;;;;;;1.42;100.00;100822.02;1702667;84;20222;-71
2021/03/30 01:07:58;;;;;;;;;;;;;;;1.34;100.00;100821.16;1702672;84;20159;-71
2021/03/30 01:10:39;;;;;;;;;;;;;;;1.26;100.00;100824.61;1702662;84;20233;-71
2021/03/30 01:13:32;;;;;;;;;;;;;;;1.20;100.00;100824.78;1702205;83;20253;-71
2021/03/30 01:16:20;;;;;;;;;;;;;;;1.22;100.00;100822.77;1854916;77;20201;-70
2021/03/30 01:19:19;;;;;;;;;;;;;;;1.17;100.00;100831.69;1822680;78;20133;-70
2021/03/30 01:22:10;;;;;;;;;;;;;;;1.16;100.00;100833.19;1771351;81;21332;-70
2021/03/30 01:27:44;;;;;;;;;;;;;;;1.16;100.00;100835.84;1855015;77;20606;-70
2021/03/30 01:30:15;;;;;;;;;;;;;;;1.14;100.00;100835.98;1791759;78;20137;-70
2021/03/30 01:32:45;;;;;;;;;;;;;;;1.17;100.00;100832.19;1822699;78;22259;-70
2021/03/30 01:35:16;;;;;;;;;;;;;;;1.17;100.00;100840.13;1822551;78;20227;-70
2021/03/30 01:37:46;;;;;;;;;;;;;;;1.25;100.00;100843.63;1822601;78;20133;-70
2021/03/30 01:40:18;;;;;;;;;;;;;;;1.22;100.00;100842.61;1822606;78;20220;-70
2021/03/30 01:42:56;;;;;;;;;;;;;;;1.26;100.00;100841.30;1822604;78;20137;-70
2021/03/30 01:45:25;;;;;;;;;;;;;;;1.33;100.00;100838.85;1822592;78;21331;-70
2021/03/30 01:47:53;;;;;;;;;;;;;;;1.28;100.00;100835.87;1822568;78;20721;-70
2021/03/30 01:50:21;;;;;;;;;;;;;;;1.24;100.00;100834.52;1822637;78;20507;-70
2021/03/30 01:52:50;;;;;;;;;;;;;;;1.15;100.00;100827.08;1822597;78;20286;-71
2021/03/30 01:55:19;;;;;;;;;;;;;;;1.09;100.00;100826.38;1822559;78;20156;-70
2021/03/30 01:57:53;;;;;;;;;;;;;;;1.00;100.00;100821.55;1822589;78;21202;-70
2021/03/30 02:00:24;;;;;;;;;;;;;;;0.92;100.00;100825.50;1822486;78;20141;-70
2021/03/30 02:02:53;;;;;;;;;;;;;;;0.83;100.00;100825.12;1822658;78;20490;-71
2021/03/30 02:05:20;;;;;;;;;;;;;;;0.83;100.00;100827.77;1822528;78;20108;-71
2021/03/30 02:07:54;;;;;;;;;;;;;;;0.74;100.00;100816.84;1822563;78;20153;-71
2021/03/30 02:10:36;;;;;;;;;;;;;;;0.64;100.00;100827.54;1822646;78;22266;-70
2021/03/30 02:13:06;;;;;;;;;;;;;;;0.58;100.00;100818.41;1822468;78;20112;-71
2021/03/30 02:15:35;;;;;;;;;;;;;;;0.62;100.00;100814.97;1822691;78;20109;-71
2021/03/30 02:18:09;;;;;;;;;;;;;;;0.62;100.00;100808.36;1822542;78;20113;-70
2021/03/30 02:20:42;;;;;;;;;;;;;;;0.57;100.00;100815.44;1822586;78;20156;-70
2021/03/30 02:23:25;;;;;;;;;;;;;;;0.47;100.00;100811.27;1819810;78;21209;-70
2021/03/30 02:25:56;;;;;;;;;;;;;;;0.37;100.00;100805.59;1823265;78;20141;-71
2021/03/30 02:28:44;;;;;;;;;;;;;;;0.43;100.00;100811.56;1798763;78;20217;-70
2021/03/30 02:31:06;;;;;;;;;;;;;;;0.43;100.00;100808.91;1827754;78;20132;-71
2021/03/30 02:33:34;;;;;;;;;;;;;;;0.45;100.00;100808.77;1828362;78;20136;-71
2021/03/30 02:36:01;;;;;;;;;;;;;;;0.41;100.00;100808.73;1828327;78;21310;-72
2021/03/30 02:38:32;;;;;;;;;;;;;;;0.38;100.00;100806.42;1827805;78;20132;-71
2021/03/30 02:41:01;;;;;;;;;;;;;;;0.32;100.00;100812.31;1786050;78;20216;-72
2021/03/30 02:43:33;;;;;;;;;;;;;;;0.17;100.00;100810.27;1827680;78;20116;-72
2021/03/30 02:46:02;;;;;;;;;;;;;;;0.07;100.00;100802.91;1827752;78;20530;-71
2021/03/30 02:48:30;;;;;;;;;;;;;;;0.10;100.00;100807.05;1827745;78;21370;-72
2021/03/30 02:50:58;;;;;;;;;;;;;;;-0.02;100.00;100803.36;1827641;78;20117;-71
2021/03/30 02:53:27;;;;;;;;;;;;;;;-0.14;100.00;100803.77;1827687;78;20129;-72
2021/03/30 02:55:54;;;;;;;;;;;;;;;-0.25;100.00;100801.69;1827761;78;20132;-72
2021/03/30 02:58:22;;;;;;;;;;;;;;;-0.34;100.00;100805.27;1827731;78;20216;-72
2021/03/30 03:00:51;;;;;;;;;;;;;;;-0.46;100.00;100802.02;1827774;78;21873;-72
2021/03/30 03:03:19;;;;;;;;;;;;;;;-0.50;100.00;100804.61;1827761;78;20502;-72
2021/03/30 03:05:47;;;;;;;;;;;;;;;-0.54;100.00;100803.74;1827807;78;20148;-72
2021/03/30 03:08:16;;;;;;;;;;;;;;;-0.51;100.00;100804.29;1827814;78;20235;-72
2021/03/30 03:10:45;;;;;;;;;;;;;;;-0.47;100.00;100804.80;1827769;78;20144;-71
2021/03/30 03:13:14;;;;;;;;;;;;;;;-0.30;100.00;100804.45;1827683;78;21079;-72
2021/03/30 03:15:43;;;;;;;;;;;;;;;-0.13;100.00;100801.45;1827705;78;20125;-71
2021/03/30 03:18:12;;;;;;;;;;;;;;;-0.07;100.00;100806.14;1827672;78;20133;-71
2021/03/30 03:20:39;;;;;;;;;;;;;;;-0.10;100.00;100808.59;1824746;78;20217;-71
2021/03/30 03:23:07;;;;;;;;;;;;;;;-0.20;100.00;100814.42;1820021;78;20204;-71
2021/03/30 03:25:35;;;;;;;;;;;;;;;-0.27;100.00;100813.37;1819945;79;22179;-72
2021/03/30 03:28:03;;;;;;;;;;;;;;;-0.36;100.00;100812.99;1814845;79;20566;-71
2021/03/30 03:30:33;;;;;;;;;;;;;;;-0.44;100.00;100812.44;1814673;79;20125;-72
2021/03/30 03:33:12;;;;;;;;;;;;;;;-0.48;100.00;100811.07;1814685;79;20117;-71
2021/03/30 03:35:42;;;;;;;;;;;;;;;-0.56;100.00;100812.32;1814802;79;20126;-71
2021/03/30 03:38:12;;;;;;;;;;;;;;;-0.68;100.00;100812.53;1814720;79;21360;-71
2021/03/30 03:40:40;;;;;;;;;;;;;;;-0.72;100.00;100815.12;1814678;79;20137;-72
2021/03/30 03:43:07;;;;;;;;;;;;;;;-0.63;100.00;100810.77;1814672;79;20204;-71
2021/03/30 03:45:36;;;;;;;;;;;;;;;-0.57;100.00;100813.28;1814704;79;20517;-72
2021/03/30 03:48:05;;;;;;;;;;;;;;;-0.62;100.00;100815.55;1814836;79;20487;-71
2021/03/30 03:50:34;;;;;;;;;;;;;;;-0.71;100.00;100815.48;1814758;79;21362;-71
2021/03/30 03:53:01;;;;;;;;;;;;;;;-0.75;100.00;100827.29;1814606;79;20193;-71
2021/03/30 03:55:29;;;;;;;;;;;;;;;-0.66;100.00;100821.62;1814670;79;20216;-72
2021/03/30 03:58:02;;;;;;;;;;;;;;;-0.65;100.00;100825.41;1814756;79;20330;-71
2021/03/30 04:00:29;;;;;;;;;;;;;;;-0.74;100.00;100826.30;1814723;79;20161;-72
2021/03/30 04:03:01;;;;;;;;;;;;;;;-0.79;100.00;100828.55;1814643;79;21345;-71
2021/03/30 04:05:44;;;;;;;;;;;;;;;-0.85;100.00;100831.80;1762475;81;20231;-72
2021/03/30 04:08:14;;;;;;;;;;;;;;;-0.88;100.00;100832.10;1762970;81;20113;-71
2021/03/30 04:10:46;;;;;;;;;;;;;;;-0.84;100.00;100830.81;1763028;81;20241;-71
2021/03/30 04:13:16;;;;;;;;;;;;;;;-0.78;100.00;100828.91;1763058;81;20216;-71
2021/03/30 04:15:44;;;;;;;;;;;;;;;-0.72;100.00;100834.06;1763040;81;21134;-71
2021/03/30 04:18:11;;;;;;;;;;;;;;;-0.68;100.00;100837.58;1762894;81;20141;-72
2021/03/30 04:20:39;;;;;;;;;;;;;;;-0.67;100.00;100835.77;1762883;81;20114;-72
2021/03/30 04:23:06;;;;;;;;;;;;;;;-0.69;100.00;100840.35;1763085;81;20153;-71
2021/03/30 04:25:34;;;;;;;;;;;;;;;-0.69;100.00;100837.72;1762984;81;20165;-71
2021/03/30 04:28:03;;;;;;;;;;;;;;;-0.69;100.00;100837.22;1759815;81;21365;-71
2021/03/30 04:30:30;;;;;;;;;;;;;;;-0.70;100.00;100830.30;1729753;81;20641;-72
2021/03/30 04:32:58;;;;;;;;;;;;;;;-0.70;100.00;100838.21;1759119;81;20193;-71
2021/03/30 04:35:26;;;;;;;;;;;;;;;-0.61;100.00;100832.55;1759221;81;20615;-71
2021/03/30 04:37:53;;;;;;;;;;;;;;;-0.48;100.00;100831.67;1759324;81;20475;-71
2021/03/30 04:40:23;;;;;;;;;;;;;;;-0.37;100.00;100838.52;1759245;81;20624;-71
2021/03/30 04:42:50;;;;;;;;;;;;;;;-0.31;100.00;100845.03;1759142;81;20196;-71
2021/03/30 04:45:18;;;;;;;;;;;;;;;-0.32;100.00;100844.20;1759177;81;20181;-72
2021/03/30 04:47:45;;;;;;;;;;;;;;;-0.34;100.00;100850.11;1759118;81;20158;-71
2021/03/30 04:50:14;;;;;;;;;;;;;;;-0.35;100.00;100852.89;1759231;81;20121;-71
2021/03/30 04:52:41;;;;;;;;;;;;;;;-0.30;100.00;100851.45;1759190;81;21370;-71
2021/03/30 04:55:10;;;;;;;;;;;;;;;-0.17;100.00;100858.16;1759244;81;20141;-71
2021/03/30 04:57:37;;;;;;;;;;;;;;;-0.02;100.00;100856.16;1759190;81;20402;-71
2021/03/30 05:00:05;;;;;;;;;;;;;;;0.04;100.00;100861.80;1759096;81;20142;-73
2021/03/30 05:02:33;;;;;;;;;;;;;;;0.08;100.00;100860.53;1759296;81;20221;-72
2021/03/30 05:05:01;;;;;;;;;;;;;;;0.17;100.00;100863.55;1759202;81;21876;-71
2021/03/30 05:07:30;;;;;;;;;;;;;;;0.29;100.00;100862.31;1759099;81;20142;-71
2021/03/30 05:09:58;;;;;;;;;;;;;;;0.30;100.00;100864.48;1759219;81;20208;-71
2021/03/30 05:12:25;;;;;;;;;;;;;;;0.36;100.00;100863.84;1757258;81;20241;-71
2021/03/30 05:14:53;;;;;;;;;;;;;;;0.49;100.00;100867.39;1758072;81;20225;-71
2021/03/30 05:17:21;;;;;;;;;;;;;;;0.59;100.00;100874.75;1758497;81;22116;-71
2021/03/30 05:19:49;;;;;;;;;;;;;;;0.69;100.00;100873.31;1757996;81;20487;-71
2021/03/30 05:22:18;;;;;;;;;;;;;;;0.81;100.00;100876.02;1757903;81;20332;-72
2021/03/30 05:24:46;;;;;;;;;;;;;;;0.96;100.00;100870.47;1751684;81;20280;-72
2021/03/30 05:27:15;;;;;;;;;;;;;;;0.91;100.00;100873.23;1749155;81;20304;-72
2021/03/30 05:29:43;;;;;;;;;;;;;;;0.97;100.00;100875.25;1759423;81;21135;-72
2021/03/30 05:32:15;;;;;;;;;;;;;;;1.04;100.00;100873.13;1759034;81;20121;-72
2021/03/30 05:34:45;;;;;;;;;;;;;;;1.12;100.00;100874.98;1759545;81;20193;-71
2021/03/30 05:37:15;;;;;;;;;;;;;;;1.22;100.00;100876.17;1758978;81;20276;-72
2021/03/30 05:39:43;;;;;;;;;;;;;;;1.38;100.00;100874.09;1759024;81;20228;-71
2021/03/30 05:42:17;;;;;;;;;;;;;;;1.57;100.00;100878.24;1758597;81;21139;-72
2021/03/30 05:44:46;;;;;;;;;;;;;;;1.70;100.00;100878.61;1758854;81;20547;-72
2021/03/30 05:49:44;;;;;;;;;;;;;;;1.75;100.00;100878.95;1759048;81;20133;-71
2021/03/30 05:52:20;;;;;;;;;;;;;;;1.85;100.00;100878.80;1759649;81;20162;-71
2021/03/30 05:54:47;;;;;;;;;;;;;;;2.11;100.00;100879.97;1759172;81;22221;-71
2021/03/30 05:57:16;;;;;;;;;;;;;;;2.27;100.00;100875.14;1758958;81;20243;-72
2021/03/30 05:59:51;;;;;;;;;;;;;;;2.33;100.00;100877.14;1758720;80;20264;-72
2021/03/30 06:02:24;;;;;;;;;;;;;;;2.29;100.00;100879.28;1759039;81;20698;-72
2021/03/30 06:04:52;;;;;;;;;;;;;;;2.25;100.00;100879.78;1759227;81;20181;-72
2021/03/30 06:07:19;;;;;;;;;;;;;;;2.31;100.00;100870.67;1758903;81;22270;-72
2021/03/30 06:09:47;;;;;;;;;;;;;;;2.54;100.00;100873.44;1758936;81;20216;-71
2021/03/30 06:12:15;;;;;;;;;;;;;;;2.76;100.00;100870.57;1758510;81;20233;-71
2021/03/30 06:14:45;;;;;;;;;;;;;;;2.98;100.00;100872.98;1758679;81;20236;-71
2021/03/30 06:17:16;;;;;;;;;;;;;;;3.25;100.00;100872.20;1759325;81;20296;-70
2021/03/30 06:19:54;;;;;;;;;;;;;;;3.36;100.00;100865.20;1759325;81;21203;-72
2021/03/30 06:22:26;;;;;;;;;;;;;;;3.65;100.00;100866.36;1759370;81;20141;-68
2021/03/30 06:24:54;;;;;;;;;;;;;;;3.89;100.00;100864.00;1758906;81;20560;-70
2021/03/30 06:27:29;;;;;;;;;;;;;;;4.08;100.00;100865.36;1758661;81;20276;-70
2021/03/30 06:29:58;;;;;;;;;;;;;;;4.20;100.00;100864.43;1759121;81;20630;-71
2021/03/30 06:32:27;;;;;;;;;;;;;;;4.41;100.00;100868.56;1758684;81;21191;-72
2021/03/30 06:35:00;;;;;;;;;;;;;;;4.67;100.00;100868.11;1758876;81;20225;-71
2021/03/30 06:37:32;;;;;;;;;;;;;;;4.89;100.00;100870.86;1749621;81;20288;-70
2021/03/30 06:40:05;;;;;;;;;;;;;;;5.23;100.00;100874.78;1759062;81;20252;-71
2021/03/30 06:45:20;;;;;;;;;;;;;;;5.62;100.00;100878.92;1749205;81;22140;-72
2021/03/30 06:47:55;;;;;;;;;;;;;;;5.72;100.00;100876.77;1759087;81;20212;-69
2021/03/30 06:50:35;;;;;;;;;;;;;;;5.72;100.00;100885.58;1759086;81;20145;-71
2021/03/30 06:53:11;;;;;;;;;;;;;;;5.80;100.00;100887.29;1759106;81;20233;-71
2021/03/30 06:55:51;;;;;;;;;;;;;;;5.89;100.00;100884.83;1757107;81;20575;-71
2021/03/30 06:58:22;;;;;;;;;;;;;;;6.16;100.00;100885.92;1753119;82;22173;-72
2021/03/30 07:00:50;;;;;;;;;;;;;;;6.36;100.00;100889.27;1753361;82;20237;-71
2021/03/30 07:03:22;;;;;;;;;;;;;;;6.34;100.00;100892.11;1753773;81;20193;-70
2021/03/30 07:05:52;;;;;;;;;;;;;;;6.41;100.00;100892.98;1753490;82;20296;-70
2021/03/30 07:08:21;;;;;;;;;;;;;;;6.72;100.00;100898.97;1753529;81;20236;-70
2021/03/30 07:10:51;;;;;;;;;;;;;;;7.04;100.00;100901.00;1753424;82;22206;-71
2021/03/30 07:13:21;;;;;;;;;;;;;;;7.10;100.00;100906.05;1753327;81;20626;-72
2021/03/30 07:16:02;;;;;;;;;;;;;;;7.16;100.00;100908.45;1753144;81;20174;-72
2021/03/30 07:18:40;;;;;;;;;;;;;;;7.38;100.00;100905.17;1752376;81;20296;-70
2021/03/30 07:21:22;;;;;;;;;;;;;;;7.45;100.00;100904.16;1753439;81;20269;-73
2021/03/30 07:23:56;;;;;;;;;;;;;;;7.40;100.00;100909.77;1753564;81;21350;-73
2021/03/30 07:26:29;;;;;;;;;;;;;;;7.22;100.00;100913.81;1753519;82;20161;-73
2021/03/30 07:29:05;;;;;;;;;;;;;;;7.33;100.00;100905.77;1753646;81;20276;-71
2021/03/30 07:31:36;;;;;;;;;;;;;;;7.47;100.00;100911.95;1753812;81;20706;-71
2021/03/30 07:34:13;;;;;;;;;;;;;;;7.62;100.00;100916.66;1753954;81;20256;-72
2021/03/30 07:36:57;;;;;;;;;;;;;;;7.97;100.00;100915.72;1752843;81;21376;-71
2021/03/30 07:39:28;;;;;;;;;;;;;;;8.06;100.00;100921.16;1752788;81;21069;-70
2021/03/30 07:41:57;;;;;;;;;;;;;;;8.50;100.00;100923.30;1752942;81;20331;-72
2021/03/30 07:44:25;;;;;;;;;;;;;;;8.65;100.00;100921.73;1753721;81;20307;-70
2021/03/30 07:46:54;;;;;;;;;;;;;;;8.67;100.00;100923.70;1755295;81;20304;-71
2021/03/30 07:49:27;;;;;;;;;;;;;;;8.70;100.00;100925.95;1755537;81;22158;-71
2021/03/30 07:51:52;;;;;;;;;;;;;;;8.66;100.00;100931.92;1752735;81;20300;-71
2021/03/30 07:54:20;;;;;;;;;;;;;;;8.81;100.00;100932.52;1753916;81;20225;-71
2021/03/30 07:56:50;;;;;;;;;;;;;;;9.07;100.00;100928.97;1753247;81;20271;-71
2021/03/30 07:59:48;;;;;;;;;;;;;;;9.47;100.00;100935.53;1753092;81;20296;-71
2021/03/30 08:02:28;;;;;;;;;;;;;;;9.61;100.00;100937.64;1752452;81;22227;-71
2021/03/30 08:05:05;;;;;;;;;;;;;;;9.90;100.00;100937.59;1753378;81;20304;-73
2021/03/30 08:07:49;;;;;;;;;;;;;;;9.93;100.00;100933.14;1752811;81;20602;-72
2021/03/30 08:10:25;;;;;;;;;;;;;;;9.52;100.00;100937.05;1725017;81;20294;-71
2021/03/30 08:13:22;;;;;;;;;;;;;;;9.43;100.00;100934.30;1724421;83;20282;-70
2021/03/30 08:15:53;;;;;;;;;;;;;;;9.92;100.00;100934.68;1724376;83;21386;-70
2021/03/30 08:18:24;;;;;;;;;;;;;;;10.05;100.00;100937.30;1724203;83;20183;-71
2021/03/30 08:20:57;;;;;;;;;;;;;;;10.49;100.00;100940.93;1724412;83;20258;-71
2021/03/30 08:23:28;;;;;;;;;;;;;;;10.65;97.85;100926.11;1716776;83;20350;-69
2021/03/30 08:26:19;;;;;;;;;;;;;;;10.59;100.00;100931.04;1676548;84;20319;-70
2021/03/30 08:28:56;;;;;;;;;;;;;;;10.62;95.05;100928.72;1718297;81;21272;-70
2021/03/30 08:31:28;;;;;;;;;;;;;;;10.62;93.57;100920.66;1708054;83;21143;-71
2021/03/30 08:33:59;;;;;;;;;;;;;;;10.74;93.54;100927.48;1730010;82;20260;-70
2021/03/30 08:36:30;;;;;;;;;;;;;;;10.78;92.54;100926.50;1725515;82;20336;-70
2021/03/30 08:39:01;;;;;;;;;;;;;;;10.68;95.65;100925.17;1725670;82;20343;-71
2021/03/30 08:41:46;;;;;;;;;;;;;;;11.02;92.77;100928.32;1723844;82;21260;-70
2021/03/30 08:44:35;;;;;;;;;;;;;;;11.35;92.39;100931.99;1711293;83;20300;-70
2021/03/30 08:47:29;;;;;;;;;;;;;;;11.34;89.44;100931.70;1710131;83;20305;-70
2021/03/30 08:50:21;;;;;;;;;;;;;;;11.44;87.33;100928.49;1708400;82;21093;-70
2021/03/30 08:52:53;;;;;;;;;;;;;;;11.62;90.74;100930.85;1701526;84;20587;-71
2021/03/30 08:55:31;;;;;;;;;;;;;;;11.97;86.81;100922.94;1716183;83;21342;-69
2021/03/30 08:58:00;;;;;;;;;;;;;;;11.98;84.81;100927.28;1707954;82;20327;-70
2021/03/30 09:00:28;;;;;;;;;;;;;;;11.58;82.49;100923.22;1711324;82;20304;-70
2021/03/30 09:03:00;;;;;;;;;;;;;;;11.52;86.83;100924.14;1711702;82;20297;-70
2021/03/30 09:05:29;;;;;;;;;;;;;;;11.72;85.07;100923.88;1717079;82;20294;-70
2021/03/30 09:08:01;;;;;;;;;;;;;;;11.57;88.44;100918.08;1688736;83;21466;-71
2021/03/30 09:10:30;;;;;;;;;;;;;;;11.61;85.55;100924.63;1712704;83;20275;-71
2021/03/30 09:13:10;;;;;;;;;;;;;;;11.84;86.13;100919.08;1713419;83;20314;-72
2021/03/30 09:15:40;;;;;;;;;;;;;;;12.00;87.04;100920.63;1714882;83;20329;-71
2021/03/30 09:18:09;;;;;;;;;;;;;;;12.17;81.41;100915.37;1716878;82;20294;-71
2021/03/30 09:20:38;;;;;;;;;;;;;;;12.42;81.37;100919.74;1730846;83;20557;-71
2021/03/30 09:23:19;;;;;;;;;;;;;;;12.60;77.92;100915.61;1730953;83;20311;-70
2021/03/30 09:25:46;;;;;;;;;;;;;;;12.29;79.59;100907.85;1730939;83;20501;-72
2021/03/30 09:28:17;;;;;;;;;;;;;;;12.08;76.89;100907.36;1726876;82;20357;-71
2021/03/30 09:30:45;;;;;;;;;;;;;;;12.31;78.56;100913.30;1705539;84;20270;-71
2021/03/30 09:33:13;;;;;;;;;;;;;;;12.27;75.68;100909.95;1722484;82;21823;-70
2021/03/30 09:35:41;;;;;;;;;;;;;;;11.96;77.52;100910.55;1708502;82;20239;-71
2021/03/30 09:38:09;;;;;;;;;;;;;;;11.72;77.74;100910.95;1734641;82;20325;-70
2021/03/30 09:40:40;;;;;;;;;;;;;;;11.57;80.53;100912.17;1734639;82;20235;-71
2021/03/30 09:43:14;;;;;;;;;;;;;;;11.61;79.74;100904.45;1734694;82;20306;-72
2021/03/30 09:45:43;;;;;;;;;;;;;;;11.36;80.15;100893.30;1734958;82;22111;-70
2021/03/30 09:48:14;;;;;;;;;;;;;;;11.04;83.53;100897.22;1708835;82;20620;-71
2021/03/30 09:50:45;;;;;;;;;;;;;;;10.99;84.38;100903.25;1734252;82;20321;-71
2021/03/30 09:53:13;;;;;;;;;;;;;;;10.91;84.29;100894.97;1733373;82;20682;-72
2021/03/30 09:55:47;;;;;;;;;;;;;;;10.85;84.69;100894.53;1735236;82;20282;-71
2021/03/30 09:58:16;;;;;;;;;;;;;;;10.94;85.35;100889.14;1734827;82;21185;-72
2021/03/30 10:00:49;;;;;;;;;;;;;;;11.05;84.41;100889.44;1734679;82;20517;-71
2021/03/30 10:03:19;;;;;;;;;;;;;;;11.79;82.98;100890.98;1709534;82;20313;-70
2021/03/30 10:05:48;;;;;;;;;;;;;;;12.62;77.10;100885.23;1709886;82;20243;-70
2021/03/30 10:08:26;;;;;;;;;;;;;;;12.99;74.80;100882.80;1735196;82;20255;-72
2021/03/30 10:10:58;;;;;;;;;;;;;;;13.88;70.45;100887.23;1734939;82;20706;-72
2021/03/30 10:13:35;;;;;;;;;;;;;;;14.29;67.72;100881.18;1735537;82;20328;-70
2021/03/30 10:16:12;;;;;;;;;;;;;;;14.08;68.81;100894.05;1708133;82;20310;-70
2021/03/30 10:18:43;;;;;;;;;;;;;;;13.85;66.99;100890.43;1734772;82;20261;-71
2021/03/30 10:21:19;;;;;;;;;;;;;;;13.15;67.09;100887.42;1734562;82;20302;-70
2021/03/30 10:23:49;;;;;;;;;;;;;;;13.06;67.74;100888.88;1734248;82;21439;-69
2021/03/30 10:26:22;;;;;;;;;;;;;;;12.77;71.17;100886.63;1732523;82;20723;-71
2021/03/30 10:28:53;;;;;;;;;;;;;;;12.23;72.47;100881.34;1732363;81;20318;-71
2021/03/30 10:31:36;;;;;;;;;;;;;;;11.98;76.00;100878.85;1725366;83;20720;-71
2021/03/30 10:33:59;;;;;;;;;;;;;;;11.98;75.96;100880.20;1724471;83;20609;-71
2021/03/30 10:40:08;;;;;;;;;;;;;;;11.96;74.44;100871.53;1724929;83;20227;-70
2021/03/30 10:42:40;;;;;;;;;;;;;;;11.75;71.85;100880.38;1724051;83;20255;-73
2021/03/30 10:45:17;;;;;;;;;;;;;;;11.47;73.25;100877.48;1724022;83;20311;-73
2021/03/30 10:47:44;;;;;;;;;;;;;;;11.52;72.86;100881.12;1699916;83;20278;-72
2021/03/30 10:50:17;;;;;;;;;;;;;;;11.56;71.35;100869.36;1725201;83;21213;-70
2021/03/30 10:52:45;;;;;;;;;;;;;;;11.69;71.79;100873.23;1724840;82;20227;-71
2021/03/30 10:55:20;;;;;;;;;;;;;;;11.84;72.09;100874.69;1725257;83;20550;-74
2021/03/30 10:57:48;;;;;;;;;;;;;;;11.89;70.99;100871.63;1700700;83;20274;-70
2021/03/30 11:00:17;;;;;;;;;;;;;;;11.88;69.68;100869.16;1726481;83;20227;-70
2021/03/30 11:02:46;;;;;;;;;;;;;;;11.83;71.60;100871.15;1726650;83;21240;-70
2021/03/30 11:05:15;;;;;;;;;;;;;;;11.74;71.16;100879.27;1726217;83;20302;-71
2021/03/30 11:07:43;;;;;;;;;;;;;;;11.77;70.37;100874.77;1725323;82;20342;-69
2021/03/30 11:10:12;;;;;;;;;;;;;;;11.77;69.65;100871.55;1726286;83;20307;-69
2021/03/30 11:12:40;;;;;;;;;;;;;;;11.63;69.50;100872.78;1726143;82;20246;-70
2021/03/30 11:15:11;;;;;;;;;;;;;;;11.61;69.19;100870.03;1726620;83;21210;-70
2021/03/30 11:17:39;;;;;;;;;;;;;;;11.94;70.35;100862.86;1726480;83;20685;-70
2021/03/30 11:20:08;;;;;;;;;;;;;;;12.38;65.67;100860.70;1726137;83;20302;-71
2021/03/30 11:22:38;;;;;;;;;;;;;;;13.06;63.51;100854.65;1726577;82;20315;-71
2021/03/30 11:25:09;;;;;;;;;;;;;;;13.53;60.92;100857.75;1725984;83;20251;-71
2021/03/30 11:27:40;;;;;;;;;;;;;;;13.19;62.48;100851.39;1726626;83;21210;-71
2021/03/30 11:32:48;;;;;;;;;;;;;;;13.32;59.92;100855.17;1722715;83;20185;-71
2021/03/30 11:35:19;;;;;;;;;;;;;;;13.39;60.22;100850.46;1721712;83;20282;-71
2021/03/30 11:37:56;;;;;;;;;;;;;;;13.41;60.70;100849.70;1722713;83;20156;-70
2021/03/30 11:40:23;;;;;;;;;;;;;;;13.51;61.17;100832.89;1722495;83;20144;-71
2021/03/30 11:43:19;;;;;;;;;;;;;;;12.83;64.18;100834.48;1722501;83;20246;-70
2021/03/30 11:45:54;;;;;;;;;;;;;;;12.40;65.43;100834.36;1852988;77;20225;-70
2021/03/30 11:48:24;;;;;;;;;;;;;;;12.39;67.57;100825.97;1822104;78;20148;-72
2021/03/30 11:50:52;;;;;;;;;;;;;;;12.33;67.36;100821.55;1821933;78;21366;-71
2021/03/30 11:53:20;;;;;;;;;;;;;;;12.23;67.54;100815.39;1821448;78;20251;-71
2021/03/30 11:55:51;;;;;;;;;;;;;;;12.16;68.39;100814.16;1822032;78;20557;-72
2021/03/30 11:58:21;;;;;;;;;;;;;;;12.05;67.10;100809.58;1821405;78;20673;-72
2021/03/30 12:00:50;;;;;;;;;;;;;;;12.13;66.66;100807.91;1821796;78;20168;-71
2021/03/30 12:03:18;;;;;;;;;;;;;;;12.39;67.33;100803.09;1820798;78;21188;-72
2021/03/30 12:05:46;;;;;;;;;;;;;;;13.49;63.35;100802.63;1820457;78;20169;-69
2021/03/30 12:08:14;;;;;;;;;;;;;;;14.45;59.83;100803.07;1820543;78;20203;-70
2021/03/30 12:10:44;;;;;;;;;;;;;;;14.96;57.70;100800.52;1820676;78;20160;-71
2021/03/30 12:13:12;;;;;;;;;;;;;;;15.56;56.74;100798.73;1821313;78;20318;-70
2021/03/30 12:15:39;;;;;;;;;;;;;;;15.11;56.09;100794.47;1821366;78;21185;-70
2021/03/30 12:18:07;;;;;;;;;;;;;;;14.97;56.86;100791.90;1819889;78;20727;-72
2021/03/30 12:20:34;;;;;;;;;;;;;;;14.71;60.41;100791.57;1820443;78;20303;-71
2021/03/30 12:23:02;;;;;;;;;;;;;;;14.68;60.59;100784.52;1820165;78;20315;-70
2021/03/30 12:25:30;;;;;;;;;;;;;;;14.64;57.74;100787.42;1820568;78;20401;-72
2021/03/30 12:28:01;;;;;;;;;;;;;;;14.40;59.38;100782.74;1820339;78;21286;-72
2021/03/30 12:30:29;;;;;;;;;;;;;;;14.18;57.06;100786.21;1820333;78;20231;-72
2021/03/30 12:32:57;;;;;;;;;;;;;;;14.09;59.91;100784.48;1820491;78;20621;-72
2021/03/30 12:35:24;;;;;;;;;;;;;;;13.58;60.56;100769.35;1820378;78;20311;-73
2021/03/30 12:37:52;;;;;;;;;;;;;;;13.09;62.12;100769.26;1819849;78;20279;-71
2021/03/30 12:40:20;;;;;;;;;;;;;;;12.91;63.75;100769.96;1820513;78;21192;-71
2021/03/30 12:42:49;;;;;;;;;;;;;;;12.50;65.74;100762.41;1820336;78;20208;-70
2021/03/30 12:45:21;;;;;;;;;;;;;;;12.52;66.62;100761.63;1806571;78;20354;-69
2021/03/30 12:47:48;;;;;;;;;;;;;;;12.45;65.74;100760.42;1798579;79;20324;-70
2021/03/30 12:50:17;;;;;;;;;;;;;;;12.86;67.17;100755.86;1798854;79;20303;-69
2021/03/30 12:52:47;;;;;;;;;;;;;;;13.09;65.94;100756.31;1798846;79;21186;-70
2021/03/30 12:55:15;;;;;;;;;;;;;;;13.02;65.09;100744.33;1798429;79;20312;-71
2021/03/30 12:57:44;;;;;;;;;;;;;;;13.13;65.12;100748.05;1769325;79;20308;-72
2021/03/30 13:00:13;;;;;;;;;;;;;;;13.88;61.34;100742.03;1797705;79;20320;-70
2021/03/30 13:02:42;;;;;;;;;;;;;;;14.07;61.01;100742.59;1798069;79;20292;-71
2021/03/30 13:05:12;;;;;;;;;;;;;;;14.06;59.78;100743.64;1798041;79;21355;-71
2021/03/30 13:07:40;;;;;;;;;;;;;;;14.47;57.21;100743.67;1798204;79;20590;-70
2021/03/30 13:10:09;;;;;;;;;;;;;;;14.66;58.58;100742.06;1798102;79;20284;-70